British Ruby — 2AKI2 — position and weather

sailwx.info

Track history (hours):
 
Tides and Currents Weather Stations Pressure Air Temp Water Temp Dewpoint Dewpoint Depression Visibility Wind Speed Wind Dir Waves Ship Positions

British Ruby

Last reported at 2015-Jul-27 11:34 UTC. Time now 2015-Aug-04 09:47 UTC.
Position N 03°11' E 100°40'.

Length 288 m; draft 11.5 m.

Type: Ship (hazmat cat C). MMSI: 235060453.

Date/timePositionNaut miles runAvg speedWind from/ knotsBaromVisibWave heightAir tempDewpointWater temp
2015-Jul-27 11:34N 03°11' E 100°40'1716.7
2015-Jul-27 10:33N 02°59' E 100°52'2416.8
2015-Jul-27 09:08N 02°44' E 101°11'2516.2
2015-Jul-27 07:33N 02°32' E 101°33'15116.5
2015-Jul-26 22:25N 01°11' E 103°40'3 3.0
2015-Jul-26 21:30N 01°10' E 103°43'0 0.0
2015-Jul-26 20:33N 01°10' E 103°43'0 0.0
2015-Jul-26 17:24N 01°10' E 103°43'0 0.0
2015-Jul-26 11:30N 01°10' E 103°43'0 0.1
2015-Jul-26 09:06N 01°10' E 103°43'0 0.0
2015-Jul-25 20:33N 01°10' E 103°43'0 0.0
2015-Jul-25 08:18N 01°10' E 103°43'0 0.0
2015-Jul-24 11:18N 01°10' E 103°43'0 0.0
2015-Jul-23 22:33N 01°10' E 103°43'0 0.0
2015-Jul-23 20:18N 01°10' E 103°43'0 0.0
2015-Jul-23 19:30N 01°10' E 103°43'0 0.0
2015-Jul-23 10:24N 01°10' E 103°43'0 0.1
2015-Jul-23 09:21N 01°10' E 103°43'0 0.1
2015-Jul-23 07:21N 01°10' E 103°43'0 0.0
2015-Jul-23 06:03N 01°10' E 103°43'0 0.0
2015-Jul-23 04:27N 01°10' E 103°43'2 2.4
2015-Jul-23 03:33N 01°09' E 103°44'8 7.8
2015-Jul-23 02:33N 01°12' E 103°52'9 9.4
2015-Jul-23 01:33N 01°16' E 104°00'1211.4
2015-Jul-23 00:30N 01°18' E 104°12'70214.0
2015-Jul-20 22:31S 05°45' E 113°33'7015.5
2015-Jul-20 18:00S 06°00' E 114°42'   110 / 161013.310.8 25.523.327.5
Track history (hours):
 
Tides and Currents Weather Stations Pressure Air Temp Water Temp Dewpoint Dewpoint Depression Visibility Wind Speed Wind Dir Waves Ship Positions

British Ruby

Last reported at 2015-Jul-27 11:34 UTC. Time now 2015-Aug-04 09:47 UTC.
Position N 03°11' E 100°40'.

Length 288 m; draft 11.5 m.

Type: Ship (hazmat cat C). MMSI: 235060453.

Date/timePositionNaut miles runAvg speedWind from/ knotsBaromVisibWave heightAir tempDewpointWater temp
2015-Jul-27 11:34N 03°11' E 100°40'1716.7
2015-Jul-27 10:33N 02°59' E 100°52'2416.8
2015-Jul-27 09:08N 02°44' E 101°11'2516.2
2015-Jul-27 07:33N 02°32' E 101°33'15116.5
2015-Jul-26 22:25N 01°11' E 103°40'3 3.0
2015-Jul-26 21:30N 01°10' E 103°43'0 0.0
2015-Jul-26 20:33N 01°10' E 103°43'0 0.0
2015-Jul-26 17:24N 01°10' E 103°43'0 0.0
2015-Jul-26 11:30N 01°10' E 103°43'0 0.1
2015-Jul-26 09:06N 01°10' E 103°43'0 0.0
2015-Jul-25 20:33N 01°10' E 103°43'0 0.0
2015-Jul-25 08:18N 01°10' E 103°43'0 0.0
2015-Jul-24 11:18N 01°10' E 103°43'0 0.0
2015-Jul-23 22:33N 01°10' E 103°43'0 0.0
2015-Jul-23 20:18N 01°10' E 103°43'0 0.0
2015-Jul-23 19:30N 01°10' E 103°43'0 0.0
2015-Jul-23 10:24N 01°10' E 103°43'0 0.1
2015-Jul-23 09:21N 01°10' E 103°43'0 0.1
2015-Jul-23 07:21N 01°10' E 103°43'0 0.0
2015-Jul-23 06:03N 01°10' E 103°43'0 0.0
2015-Jul-23 04:27N 01°10' E 103°43'2 2.4
2015-Jul-23 03:33N 01°09' E 103°44'8 7.8
2015-Jul-23 02:33N 01°12' E 103°52'9 9.4
2015-Jul-23 01:33N 01°16' E 104°00'1211.4
2015-Jul-23 00:30N 01°18' E 104°12'70214.0
2015-Jul-20 22:31S 05°45' E 113°33'7015.5
2015-Jul-20 18:00S 06°00' E 114°42'   110 / 161013.310.8 25.523.327.5

Dump ship's entire track history